Time;durP1;ratioP1;P1;durP2;ratioP2;P2;SDS_P1;SDS_P2;PMS_P1;PMS_P2;Temp;Humidity;BMP_temperature;BMP_pressure;BME280_temperature;BME280_humidity;BME280_pressure;Samples;Min_cycle;Max_cycle;Signal;HPM_P1;HPM_P2
2023/12/01 00:00:31;;;;;;;12.27;6.40;;;;;;;-2.93;61.28;99040.19;5033964;28;20033;-55
2023/12/01 00:02:57;;;;;;;10.02;5.50;;;;;;;-3.26;61.13;98985.56;5035880;28;20098;-63
2023/12/01 00:05:23;;;;;;;11.80;6.00;;;;;;;-2.95;61.72;99028.91;5035875;28;20029;-49
2023/12/01 00:07:49;;;;;;;11.27;6.05;;;;;;;-2.93;61.88;99034.94;5036055;28;20416;-55
2023/12/01 00:10:14;;;;;;;9.00;5.13;;;;;;;-2.87;61.14;99034.75;5044149;28;20025;-56
2023/12/01 00:12:40;;;;;;;9.30;5.65;;;;;;;-2.88;61.18;99033.88;5055327;28;20359;-58
2023/12/01 00:15:06;;;;;;;8.68;4.82;;;;;;;-2.86;60.75;99028.59;5053900;28;20052;-51
2023/12/01 00:17:32;;;;;;;13.68;5.88;;;;;;;-2.89;61.40;99031.31;5055513;28;20106;-50
2023/12/01 00:19:58;;;;;;;12.38;5.38;;;;;;;-2.88;61.40;99028.63;5055607;28;20410;-57
2023/12/01 00:22:24;;;;;;;10.40;5.50;;;;;;;-2.83;60.79;99036.31;5055180;28;20033;-50
2023/12/01 00:24:50;;;;;;;9.68;5.45;;;;;;;-2.80;60.85;99040.56;5053435;28;20087;-54
2023/12/01 00:27:16;;;;;;;11.00;5.28;;;;;;;-2.76;61.37;99032.53;5055262;28;20049;-55
2023/12/01 00:29:42;;;;;;;10.55;5.80;;;;;;;-2.70;60.64;99035.84;5055223;28;20040;-54
2023/12/01 00:32:07;;;;;;;9.65;5.47;;;;;;;-2.67;60.92;99039.19;5053055;28;20025;-52
2023/12/01 00:34:33;;;;;;;10.95;6.15;;;;;;;-2.63;60.83;99047.81;5055023;28;20048;-53
2023/12/01 00:36:59;;;;;;;12.13;5.82;;;;;;;-2.94;60.41;98991.34;5055096;28;20162;-52
2023/12/01 00:39:24;;;;;;;10.30;5.82;;;;;;;-2.69;60.70;99037.53;5055394;28;20347;-57
2023/12/01 00:41:50;;;;;;;12.57;6.18;;;;;;;-2.76;60.84;99032.53;5053095;28;20032;-56
2023/12/01 00:44:16;;;;;;;9.98;5.32;;;;;;;-2.75;60.97;99036.03;5054849;28;20033;-58
2023/12/01 00:46:42;;;;;;;11.13;5.90;;;;;;;-2.78;60.48;99025.66;5054959;28;20107;-57
2023/12/01 00:49:08;;;;;;;9.90;5.38;;;;;;;-2.76;60.75;99034.31;5054654;28;20025;-58
2023/12/01 00:51:33;;;;;;;11.95;5.95;;;;;;;-2.80;60.33;99036.19;5054784;28;20033;-57
2023/12/01 00:53:59;;;;;;;11.07;5.60;;;;;;;-2.81;60.51;99047.59;5055096;28;20029;-57
2023/12/01 00:56:24;;;;;;;12.10;6.38;;;;;;;-2.81;60.42;99039.75;5049748;28;20030;-56
2023/12/01 00:58:50;;;;;;;14.20;6.18;;;;;;;-2.91;60.76;99039.22;5034908;28;20037;-57
2023/12/01 01:01:17;;;;;;;9.57;5.25;;;;;;;-2.95;60.78;99042.00;5036721;28;20029;-56
2023/12/01 01:03:43;;;;;;;13.80;5.75;;;;;;;-2.93;60.66;99040.19;5054319;28;20028;-56
2023/12/01 01:06:10;;;;;;;11.60;5.47;;;;;;;-2.92;60.33;99042.75;5054465;28;20351;-55
2023/12/01 01:08:36;;;;;;;11.30;5.90;;;;;;;-2.98;60.46;99044.75;5054670;28;20040;-58
2023/12/01 01:11:02;;;;;;;10.05;5.30;;;;;;;-2.90;59.76;99050.53;5052406;28;20028;-53
2023/12/01 01:13:28;;;;;;;11.88;5.93;;;;;;;-2.97;59.96;99043.84;5054447;28;20029;-57
2023/12/01 01:15:54;;;;;;;10.52;5.40;;;;;;;-2.98;60.04;99045.63;5054657;28;20365;-54
2023/12/01 01:18:20;;;;;;;10.50;5.80;;;;;;;-3.27;60.97;98992.56;5054201;28;20462;-58
2023/12/01 01:20:47;;;;;;;14.50;6.25;;;;;;;-2.90;60.59;99051.41;5038476;28;20033;-55
2023/12/01 01:23:13;;;;;;;12.02;5.47;;;;;;;-2.85;60.58;99047.75;5034320;28;20126;-57
2023/12/01 01:25:38;;;;;;;11.77;5.55;;;;;;;-2.86;60.26;99044.31;5035898;28;20065;-56
2023/12/01 01:28:04;;;;;;;13.55;6.63;;;;;;;-2.85;60.14;99042.53;5053815;28;20658;-56
2023/12/01 01:30:30;;;;;;;13.52;6.90;;;;;;;-2.81;60.31;99038.88;5054272;28;20523;-59
2023/12/01 01:32:56;;;;;;;13.25;6.60;;;;;;;-2.77;60.13;99053.59;5054267;28;20037;-56
2023/12/01 01:35:22;;;;;;;12.98;6.80;;;;;;;-2.98;60.05;99008.09;5054029;28;20888;-58
2023/12/01 01:37:47;;;;;;;14.57;6.90;;;;;;;-2.76;60.34;99050.06;5053742;28;20067;-55
2023/12/01 01:40:14;;;;;;;10.95;6.70;;;;;;;-2.72;60.30;99046.41;5048936;28;20076;-56
2023/12/01 01:42:39;;;;;;;12.38;6.35;;;;;;;-2.75;60.31;99049.97;5039896;28;20032;-58
2023/12/01 01:45:05;;;;;;;12.50;6.55;;;;;;;-2.70;59.87;99054.19;5054021;28;20432;-57
2023/12/01 01:47:35;;;;;;;11.38;6.80;;;;;;;-2.71;60.48;99049.84;5052701;28;20409;-57
2023/12/01 01:50:07;;;;;;;12.10;6.25;;;;;;;-2.64;60.40;99052.19;5053833;28;20039;-58
2023/12/01 01:52:35;;;;;;;15.30;7.25;;;;;;;-2.60;60.40;99048.53;5054161;28;20087;-56
2023/12/01 01:55:02;;;;;;;11.75;6.20;;;;;;;-2.63;60.66;99055.66;5052304;28;20021;-55
2023/12/01 01:57:40;;;;;;;14.85;7.45;;;;;;;-2.72;60.16;99033.28;5052267;28;20024;-58
2023/12/01 02:00:06;;;;;;;14.40;7.53;;;;;;;-2.72;60.52;99043.78;5035466;28;20121;-56
2023/12/01 02:02:35;;;;;;;16.45;7.70;;;;;;;-2.83;60.68;99038.94;5034052;28;20415;-54
2023/12/01 02:05:01;;;;;;;15.80;7.88;;;;;;;-2.80;61.06;99056.28;5034047;28;20440;-56
2023/12/01 02:07:27;;;;;;;14.63;7.35;;;;;;;-2.82;61.08;99045.03;5033054;28;20501;-57
2023/12/01 02:09:57;;;;;;;12.82;6.65;;;;;;;-2.78;60.95;99052.72;5033288;28;20025;-55
2023/12/01 02:12:22;;;;;;;13.77;7.68;;;;;;;-2.79;61.46;99051.00;5033696;28;20060;-54
2023/12/01 02:14:48;;;;;;;18.13;7.75;;;;;;;-2.80;61.43;99061.53;5041493;28;20064;-58
2023/12/01 02:17:14;;;;;;;13.82;7.47;;;;;;;-2.81;61.81;99055.47;5053073;28;20086;-58
2023/12/01 02:19:40;;;;;;;13.80;7.25;;;;;;;-2.80;61.62;99064.16;5053077;28;20054;-53
2023/12/01 02:22:05;;;;;;;18.88;8.15;;;;;;;-2.77;61.56;99061.44;5051347;28;20398;-53
2023/12/01 02:24:31;;;;;;;15.48;8.05;;;;;;;-2.81;61.28;99055.47;5052019;28;20070;-53
2023/12/01 02:26:57;;;;;;;14.45;7.53;;;;;;;-2.76;61.40;99055.28;5052669;28;20045;-59
2023/12/01 02:29:23;;;;;;;13.93;7.78;;;;;;;-2.79;61.03;99053.63;5052810;28;20129;-56
2023/12/01 02:31:48;;;;;;;15.95;7.70;;;;;;;-2.79;61.43;99052.75;5050978;28;20072;-57
2023/12/01 02:34:14;;;;;;;15.55;8.38;;;;;;;-2.82;61.58;99045.03;5051008;28;20040;-55
2023/12/01 02:36:40;;;;;;;14.55;7.72;;;;;;;-2.79;60.99;99042.28;5052501;28;20025;-50
2023/12/01 02:39:07;;;;;;;13.20;7.25;;;;;;;-2.75;61.04;99046.50;5051988;28;20021;-57
2023/12/01 02:41:33;;;;;;;16.60;7.97;;;;;;;-2.78;61.33;99050.09;5053096;28;20025;-57
2023/12/01 02:43:59;;;;;;;14.95;7.90;;;;;;;-2.79;61.11;99043.16;5052470;28;20028;-57
2023/12/01 02:46:24;;;;;;;14.73;8.07;;;;;;;-2.79;61.24;99040.53;5049767;28;20036;-58
2023/12/01 02:48:50;;;;;;;14.25;8.02;;;;;;;-2.78;61.48;99039.63;5032460;28;20061;-59
2023/12/01 02:51:16;;;;;;;16.90;8.20;;;;;;;-2.70;61.41;99039.31;5032077;28;20136;-56
2023/12/01 02:53:42;;;;;;;15.68;8.05;;;;;;;-2.70;61.35;99038.44;5032240;28;20040;-54
2023/12/01 02:56:08;;;;;;;14.25;7.55;;;;;;;-2.67;61.21;99027.84;5032897;28;20112;-58
2023/12/01 02:58:34;;;;;;;14.45;8.02;;;;;;;-2.72;60.90;99040.28;5032579;28;20502;-57
2023/12/01 03:01:02;;;;;;;13.35;7.35;;;;;;;-2.72;60.88;99038.53;5031712;28;20036;-57
2023/12/01 03:03:28;;;;;;;16.42;8.20;;;;;;;-2.81;60.93;99044.97;5044601;28;20032;-57
2023/12/01 03:05:53;;;;;;;13.75;7.47;;;;;;;-2.87;61.22;99029.50;5052033;28;20433;-59
2023/12/01 03:08:19;;;;;;;18.27;7.75;;;;;;;-2.80;60.95;99033.59;5052172;28;20032;-56
2023/12/01 03:10:45;;;;;;;15.18;7.95;;;;;;;-2.81;60.76;99034.50;5052592;28;20036;-57
2023/12/01 03:13:10;;;;;;;14.23;7.68;;;;;;;-2.84;60.34;99018.91;5052432;28;20444;-55
2023/12/01 03:15:36;;;;;;;14.57;7.13;;;;;;;-3.04;60.13;99001.31;5052502;28;20055;-55
2023/12/01 03:18:01;;;;;;;16.77;7.80;;;;;;;-2.86;60.25;99025.09;5050431;28;20478;-56
2023/12/01 03:20:27;;;;;;;16.77;8.10;;;;;;;-3.03;59.91;98992.53;5037593;28;20440;-57
2023/12/01 03:22:53;;;;;;;15.25;8.13;;;;;;;-2.74;60.41;99024.63;5032090;28;20021;-56
2023/12/01 03:25:19;;;;;;;17.92;7.82;;;;;;;-2.69;60.51;99024.44;5032177;28;20120;-57
2023/12/01 03:27:47;;;;;;;14.93;7.90;;;;;;;-2.65;60.11;99028.66;5032050;28;20144;-58
2023/12/01 03:30:18;;;;;;;15.45;8.25;;;;;;;-2.64;60.29;99020.72;5032611;28;20041;-56
2023/12/01 03:32:45;;;;;;;15.95;8.10;;;;;;;-2.58;60.14;99022.25;5032704;28;20033;-57
2023/12/01 03:35:13;;;;;;;15.98;8.57;;;;;;;-2.56;60.13;99022.19;5033973;28;20037;-57
2023/12/01 03:37:38;;;;;;;16.98;8.82;;;;;;;-2.51;59.95;99030.75;5036833;28;20029;-59
2023/12/01 03:40:08;;;;;;;18.95;8.15;;;;;;;-2.47;60.19;99025.31;5036581;28;20150;-59
2023/12/01 03:42:36;;;;;;;19.25;7.95;;;;;;;-2.54;59.86;99026.47;5035860;28;20396;-57
2023/12/01 03:45:02;;;;;;;15.50;8.18;;;;;;;-2.43;59.74;99022.56;5034973;28;20128;-57
2023/12/01 03:47:30;;;;;;;16.13;8.45;;;;;;;-2.69;60.07;98980.75;5046237;28;20090;-55
2023/12/01 03:49:55;;;;;;;19.60;8.35;;;;;;;-2.61;59.64;98993.56;5055337;28;20399;-53
2023/12/01 03:52:21;;;;;;;16.15;8.25;;;;;;;-2.51;60.02;99030.75;5055623;28;20116;-57
2023/12/01 03:54:46;;;;;;;21.15;8.98;;;;;;;-2.54;59.95;99020.34;5055748;28;20045;-57
2023/12/01 03:57:13;;;;;;;17.90;8.82;;;;;;;-2.56;60.15;99006.47;5056264;28;20032;-52
2023/12/01 03:59:39;;;;;;;16.15;8.43;;;;;;;-2.60;60.11;99021.47;5056428;28;20040;-54
2023/12/01 04:02:05;;;;;;;18.67;8.60;;;;;;;-2.56;60.17;99012.56;5040801;28;20368;-56
2023/12/01 04:04:30;;;;;;;18.30;8.18;;;;;;;-2.50;60.41;99022.81;5036593;28;20064;-56
2023/12/01 04:06:56;;;;;;;18.63;8.63;;;;;;;-2.53;60.37;99035.16;5035840;28;20399;-52
2023/12/01 04:09:21;;;;;;;19.23;8.52;;;;;;;-2.53;60.01;99033.41;5035197;28;20071;-52
2023/12/01 04:11:47;;;;;;;19.52;8.82;;;;;;;-2.49;60.35;99013.19;5044058;28;20049;-52
2023/12/01 04:14:13;;;;;;;18.33;8.18;;;;;;;-2.52;60.06;99027.25;5037741;28;20052;-55
2023/12/01 04:16:38;;;;;;;19.35;9.35;;;;;;;-2.55;60.65;99024.75;5055770;28;20029;-55
2023/12/01 04:19:04;;;;;;;18.25;9.27;;;;;;;-2.52;60.38;99021.19;5047833;28;20090;-54
2023/12/01 04:21:29;;;;;;;18.73;9.70;;;;;;;-2.57;60.79;99021.34;5035388;28;20029;-58
2023/12/01 04:23:55;;;;;;;19.85;9.82;;;;;;;-2.57;60.68;99031.84;5035204;28;20403;-57
2023/12/01 04:26:21;;;;;;;23.20;9.60;;;;;;;-2.55;60.68;99024.75;5034961;28;20057;-57
2023/12/01 04:28:46;;;;;;;21.08;9.88;;;;;;;-2.49;60.79;99028.91;5035254;28;20035;-53
2023/12/01 04:31:12;;;;;;;20.50;10.00;;;;;;;-2.60;61.08;99011.00;5035578;28;20072;-58
2023/12/01 04:33:37;;;;;;;18.70;8.93;;;;;;;-2.49;60.93;99018.44;5040628;28;20028;-57
2023/12/01 04:36:06;;;;;;;19.50;9.90;;;;;;;-2.61;61.17;98993.56;5055130;28;20045;-56
2023/12/01 04:38:35;;;;;;;22.55;10.00;;;;;;;-2.48;60.79;99018.34;5054797;28;20033;-58
2023/12/01 04:41:03;;;;;;;22.05;10.63;;;;;;;-2.48;61.09;99009.66;5054882;28;20043;-57
2023/12/01 04:43:30;;;;;;;20.20;10.13;;;;;;;-2.46;61.20;99013.91;5055168;28;20051;-57
2023/12/01 04:45:56;;;;;;;23.55;10.38;;;;;;;-2.40;60.80;99012.81;5053878;28;20033;-58
2023/12/01 04:48:22;;;;;;;20.67;9.88;;;;;;;-2.42;60.62;99008.53;5047710;28;20360;-58
2023/12/01 04:50:48;;;;;;;18.15;9.23;;;;;;;-2.48;60.52;99012.28;5035114;28;20116;-57
2023/12/01 04:53:14;;;;;;;25.05;10.60;;;;;;;-2.51;61.41;99000.13;5034394;28;20041;-56
2023/12/01 04:55:39;;;;;;;23.42;10.63;;;;;;;-2.53;60.87;98999.34;5034999;28;20025;-57
2023/12/01 04:58:05;;;;;;;26.63;11.15;;;;;;;-2.54;61.00;99000.25;5034905;28;20072;-56
2023/12/01 05:00:31;;;;;;;18.23;10.05;;;;;;;-2.45;61.02;99004.28;5034337;28;20362;-59
2023/12/01 05:03:02;;;;;;;18.70;9.50;;;;;;;-2.38;60.38;99012.75;5038219;28;20025;-59
2023/12/01 05:05:30;;;;;;;21.80;9.73;;;;;;;-2.43;61.07;99007.69;5034401;28;20047;-55
2023/12/01 05:07:57;;;;;;;21.95;10.18;;;;;;;-2.64;61.09;98972.72;5034646;28;20091;-56
2023/12/01 05:10:26;;;;;;;21.17;10.27;;;;;;;-2.37;61.00;99001.34;5035311;28;20395;-54
2023/12/01 05:12:54;;;;;;;23.73;11.30;;;;;;;-2.66;61.18;98951.81;5052043;28;20407;-53
2023/12/01 05:15:24;;;;;;;20.83;10.43;;;;;;;-2.42;61.00;98996.28;5054459;28;20036;-52
2023/12/01 05:18:10;;;;;;;23.30;10.30;;;;;;;-2.26;61.43;98995.66;5051979;28;20045;-54
2023/12/01 05:20:36;;;;;;;21.95;10.48;;;;;;;-2.29;60.97;98999.25;5042694;28;20443;-51
2023/12/01 05:23:09;;;;;;;21.85;10.40;;;;;;;-2.32;60.79;98994.16;5034175;28;20086;-57
2023/12/01 05:25:37;;;;;;;20.60;9.80;;;;;;;-2.28;61.16;98987.03;5034297;28;20116;-57
2023/12/01 05:28:05;;;;;;;22.40;10.82;;;;;;;-2.25;61.33;98987.72;5033660;28;20065;-57
2023/12/01 05:30:36;;;;;;;21.50;10.27;;;;;;;-2.28;60.75;98973.91;5033639;28;20072;-56
2023/12/01 05:33:04;;;;;;;20.75;9.90;;;;;;;-2.53;60.26;98933.81;5034399;28;20029;-59
2023/12/01 05:35:30;;;;;;;20.00;10.10;;;;;;;-2.28;60.79;98985.22;5035182;28;20029;-56
2023/12/01 05:37:57;;;;;;;21.40;10.40;;;;;;;-2.25;60.97;98994.75;5033389;28;20033;-55
2023/12/01 05:40:29;;;;;;;18.38;10.70;;;;;;;-2.72;61.25;98894.41;5033992;28;20037;-56
2023/12/01 05:42:56;;;;;;;19.98;9.95;;;;;;;-2.22;60.69;98984.97;5050075;28;20040;-54
2023/12/01 05:45:26;;;;;;;21.25;10.73;;;;;;;-2.18;61.33;98991.78;5053928;28;20363;-55
2023/12/01 05:47:53;;;;;;;22.75;10.52;;;;;;;-2.19;60.85;98978.75;5053572;28;20111;-56
2023/12/01 05:50:26;;;;;;;23.17;10.93;;;;;;;-2.10;61.29;98991.47;5053322;28;20033;-52
2023/12/01 05:52:55;;;;;;;25.73;10.85;;;;;;;-2.05;60.30;98989.53;5051755;28;20044;-54
2023/12/01 05:55:23;;;;;;;21.58;10.57;;;;;;;-2.05;60.51;98993.91;5053891;28;20036;-52
2023/12/01 05:57:51;;;;;;;21.73;10.60;;;;;;;-2.39;60.71;98946.34;5052414;28;20037;-54
2023/12/01 06:00:19;;;;;;;21.58;10.45;;;;;;;-2.01;60.63;99000.72;5053130;28;20024;-55
2023/12/01 06:02:46;;;;;;;24.15;10.90;;;;;;;-2.03;60.12;98994.69;5053279;28;20048;-56
2023/12/01 06:05:14;;;;;;;22.23;10.43;;;;;;;-2.10;60.89;99001.13;5053663;28;20131;-58
2023/12/01 06:07:44;;;;;;;17.83;9.15;;;;;;;-2.08;60.79;98997.50;5046098;28;20094;-57
2023/12/01 06:10:13;;;;;;;18.23;9.65;;;;;;;-2.14;60.72;98989.06;5033238;28;20155;-58
2023/12/01 06:12:39;;;;;;;21.13;10.70;;;;;;;-2.23;60.95;98991.13;5033677;28;20045;-58
2023/12/01 06:15:13;;;;;;;19.48;10.48;;;;;;;-2.19;61.08;98989.25;5032370;28;20044;-53
2023/12/01 06:17:41;;;;;;;24.08;10.32;;;;;;;-2.08;61.46;98992.25;5053106;28;20072;-55
2023/12/01 06:20:16;;;;;;;20.73;9.02;;;;;;;-1.99;60.65;98993.66;5052990;28;20356;-55
2023/12/01 06:22:44;;;;;;;22.38;10.15;;;;;;;-1.98;60.94;98987.47;5051237;28;20028;-57
2023/12/01 06:25:09;;;;;;;20.73;10.13;;;;;;;-1.99;60.60;98982.31;5049204;28;20037;-57
2023/12/01 06:27:36;;;;;;;24.13;10.43;;;;;;;-1.90;60.46;98990.66;5052604;28;20122;-58
2023/12/01 06:30:03;;;;;;;21.23;9.80;;;;;;;-1.93;60.68;98976.78;5051181;28;20116;-54
2023/12/01 06:32:29;;;;;;;16.88;8.30;;;;;;;-1.77;60.14;98984.84;5035681;28;20175;-57
2023/12/01 06:34:55;;;;;;;17.48;9.77;;;;;;;-1.80;60.24;98975.38;5042154;28;20458;-57
2023/12/01 06:37:21;;;;;;;22.88;10.30;;;;;;;-1.85;60.22;98990.44;5037623;28;20041;-57
2023/12/01 06:39:46;;;;;;;18.50;10.25;;;;;;;-1.82;60.52;98986.81;5037623;28;20029;-56
2023/12/01 06:42:12;;;;;;;19.40;10.35;;;;;;;-1.94;60.17;98954.94;5052321;28;20028;-58
2023/12/01 06:44:37;;;;;;;18.85;9.25;;;;;;;-1.79;60.07;98978.81;5051270;28;20029;-58
2023/12/01 06:47:03;;;;;;;20.20;9.55;;;;;;;-1.78;60.04;98973.53;5036089;28;20459;-57
2023/12/01 06:49:28;;;;;;;20.45;10.23;;;;;;;-1.94;60.19;98965.44;5031601;28;20036;-58
2023/12/01 06:51:54;;;;;;;20.10;9.25;;;;;;;-1.84;60.38;98971.13;5032586;28;20060;-58
2023/12/01 06:54:20;;;;;;;17.65;10.07;;;;;;;-1.83;60.12;98991.22;5033156;28;20037;-57
2023/12/01 06:56:46;;;;;;;21.65;9.55;;;;;;;-1.83;60.54;98980.72;5032367;28;20029;-58
2023/12/01 06:59:12;;;;;;;18.98;10.25;;;;;;;-1.82;60.57;98978.97;5033463;28;20046;-61
2023/12/01 07:01:37;;;;;;;19.23;9.18;;;;;;;-1.78;60.11;98993.66;5032698;28;20061;-52
2023/12/01 07:04:07;;;;;;;18.50;9.07;;;;;;;-1.91;60.57;98962.72;5032363;28;20443;-56
2023/12/01 07:06:36;;;;;;;20.35;9.80;;;;;;;-1.74;60.84;98990.84;5032333;28;20112;-59
2023/12/01 07:09:03;;;;;;;18.58;9.75;;;;;;;-1.70;60.50;98981.03;5032451;28;20221;-57
2023/12/01 07:11:28;;;;;;;16.80;8.73;;;;;;;-1.67;59.75;98970.44;5031822;28;20383;-59
2023/12/01 07:13:54;;;;;;;20.15;9.40;;;;;;;-1.72;59.84;98977.63;5043855;28;20123;-57
2023/12/01 07:16:20;;;;;;;20.67;9.07;;;;;;;-1.72;60.14;98985.50;5052557;28;20358;-55
2023/12/01 07:18:46;;;;;;;21.38;10.30;;;;;;;-1.65;60.36;98986.09;5040230;28;20057;-57
2023/12/01 07:21:11;;;;;;;17.58;8.60;;;;;;;-1.65;59.90;98975.59;5032577;28;20263;-56
2023/12/01 07:23:40;;;;;;;18.33;8.38;;;;;;;-1.66;59.77;98972.13;5032137;28;20059;-57
2023/12/01 07:26:06;;;;;;;21.85;9.40;;;;;;;-1.73;59.53;98965.44;5031196;28;20096;-56
2023/12/01 07:28:32;;;;;;;17.77;9.65;;;;;;;-1.70;59.90;98981.03;5036479;28;20026;-59
2023/12/01 07:30:59;;;;;;;20.85;9.20;;;;;;;-1.63;59.61;98981.63;5032707;28;20080;-57
2023/12/01 07:33:25;;;;;;;20.70;10.50;;;;;;;-1.64;60.01;98972.91;5032149;28;20071;-58
2023/12/01 07:35:51;;;;;;;20.20;10.65;;;;;;;-1.61;59.93;98970.16;5032568;28;20069;-55
2023/12/01 07:38:17;;;;;;;19.23;9.32;;;;;;;-1.55;59.98;98976.91;5030969;28;20029;-57
2023/12/01 07:40:44;;;;;;;21.73;9.88;;;;;;;-1.76;59.98;98928.81;5032915;28;20025;-54
2023/12/01 07:43:10;;;;;;;21.73;9.98;;;;;;;-1.48;59.84;98967.81;5031953;28;20041;-56
2023/12/01 07:45:36;;;;;;;20.45;10.48;;;;;;;-1.49;60.06;98968.75;5031696;28;20029;-58
2023/12/01 07:48:02;;;;;;;19.52;9.55;;;;;;;-1.49;59.62;98957.38;5032172;28;20036;-58
2023/12/01 07:50:28;;;;;;;22.60;10.68;;;;;;;-1.48;59.30;98953.84;5033351;28;20040;-56
2023/12/01 07:52:54;;;;;;;20.75;9.93;;;;;;;-1.55;59.92;98942.78;5032091;28;20091;-61
2023/12/01 07:55:20;;;;;;;20.13;10.32;;;;;;;-1.74;59.94;98911.22;5032262;28;20025;-56
2023/12/01 07:57:46;;;;;;;19.98;10.40;;;;;;;-1.43;59.92;98953.63;5031914;28;20444;-55
2023/12/01 08:00:16;;;;;;;18.15;9.68;;;;;;;-1.45;60.47;98949.31;5040800;28;20033;-58
2023/12/01 08:02:47;;;;;;;20.38;10.82;;;;;;;-1.36;60.19;98950.66;5034150;28;20033;-57
2023/12/01 08:05:16;;;;;;;18.25;9.32;;;;;;;-1.22;59.70;98944.78;5045444;28;20108;-59
2023/12/01 08:07:53;;;;;;;18.92;9.52;;;;;;;-1.20;59.97;98936.84;5048962;28;20370;-56
2023/12/01 08:10:19;;;;;;;18.17;10.00;;;;;;;-1.26;59.91;98937.09;5051679;28;20044;-55
2023/12/01 08:12:46;;;;;;;19.65;10.40;;;;;;;-1.21;59.72;98942.97;5050058;28;20033;-59
2023/12/01 08:15:12;;;;;;;20.65;10.90;;;;;;;-1.21;60.20;98932.47;5047700;28;20130;-56
2023/12/01 08:17:39;;;;;;;21.65;10.40;;;;;;;-1.13;60.02;98933.00;5038420;28;20425;-57
2023/12/01 08:20:06;;;;;;;17.20;9.88;;;;;;;-1.07;59.84;98921.34;5040176;28;20040;-55
2023/12/01 08:22:32;;;;;;;18.70;10.80;;;;;;;-1.10;59.25;98917.06;5040815;28;20041;-53
2023/12/01 08:24:58;;;;;;;20.52;10.75;;;;;;;-1.14;59.61;98918.16;5034341;28;20033;-58
2023/12/01 08:27:24;;;;;;;22.60;10.93;;;;;;;-1.10;59.95;98922.34;5035404;28;20060;-60
2023/12/01 08:29:50;;;;;;;18.88;10.63;;;;;;;-1.02;59.71;98921.97;5052704;28;20116;-63
2023/12/01 08:32:16;;;;;;;21.48;10.43;;;;;;;-1.03;59.44;98928.16;5049662;28;20387;-62
2023/12/01 08:34:42;;;;;;;19.63;10.82;;;;;;;-1.01;59.20;98942.06;5054721;28;20045;-63
2023/12/01 08:37:08;;;;;;;21.88;11.18;;;;;;;-1.11;59.37;98925.88;5054422;28;20032;-63
2023/12/01 08:39:33;;;;;;;22.70;11.52;;;;;;;-1.16;60.08;98914.75;5049596;28;20086;-60
2023/12/01 08:41:59;;;;;;;23.58;11.50;;;;;;;-1.18;60.54;98913.97;5042847;28;20064;-59
2023/12/01 08:44:24;;;;;;;21.08;11.50;;;;;;;-1.13;59.72;98909.34;5042391;28;20024;-59
2023/12/01 08:46:50;;;;;;;18.52;10.68;;;;;;;-1.18;60.41;98913.97;5049350;28;20051;-57
2023/12/01 08:49:16;;;;;;;23.10;11.98;;;;;;;-1.23;60.57;98897.56;5047483;28;20033;-59
2023/12/01 08:51:41;;;;;;;22.75;10.90;;;;;;;-1.16;60.62;98914.75;5053855;28;20025;-62
2023/12/01 08:54:07;;;;;;;20.30;11.25;;;;;;;-1.14;60.63;98918.16;5053865;28;20086;-58
2023/12/01 08:56:34;;;;;;;20.83;11.20;;;;;;;-1.15;60.59;98898.06;5053889;28;20032;-57
2023/12/01 08:59:00;;;;;;;20.20;11.55;;;;;;;-1.10;60.64;98890.81;5053512;28;20139;-63
2023/12/01 09:01:25;;;;;;;21.60;11.55;;;;;;;-1.03;60.59;98905.34;5048660;28;20111;-56
2023/12/01 09:03:51;;;;;;;22.02;11.85;;;;;;;-0.96;60.86;98897.19;5054038;28;20036;-61
2023/12/01 09:06:16;;;;;;;21.65;12.52;;;;;;;-0.96;60.84;98892.78;5054130;28;20035;-60
2023/12/01 09:08:42;;;;;;;23.60;12.13;;;;;;;-0.92;60.71;98893.50;5053687;28;20033;-61
2023/12/01 09:11:08;;;;;;;22.75;12.00;;;;;;;-0.93;60.46;98881.28;5053536;28;20028;-65
2023/12/01 09:13:34;;;;;;;24.05;12.60;;;;;;;-0.85;60.65;98884.38;5053889;28;20036;-59
2023/12/01 09:16:00;;;;;;;23.73;12.25;;;;;;;-0.78;60.62;98890.19;5048871;28;20463;-61
2023/12/01 09:18:27;;;;;;;28.25;13.00;;;;;;;-0.82;60.15;98872.88;5053776;28;20021;-60
2023/12/01 09:20:52;;;;;;;22.85;11.75;;;;;;;-0.81;60.89;98883.28;5049754;28;20040;-59
2023/12/01 09:23:18;;;;;;;24.02;12.50;;;;;;;-0.79;60.68;98873.56;5033415;28;20030;-63
2023/12/01 09:25:49;;;;;;;25.00;12.07;;;;;;;-0.85;60.71;98859.84;5033497;28;20043;-57
2023/12/01 09:28:18;;;;;;;26.05;11.93;;;;;;;-0.78;60.64;98884.94;5034033;28;20360;-61
2023/12/01 09:30:43;;;;;;;23.60;12.15;;;;;;;-0.75;60.55;98879.50;5042374;28;20090;-63
2023/12/01 09:33:09;;;;;;;21.60;11.57;;;;;;;-0.79;60.79;98872.72;5049831;28;20032;-63
2023/12/01 09:35:35;;;;;;;20.92;11.90;;;;;;;-0.82;61.11;98875.50;5033671;28;20093;-65
2023/12/01 09:38:00;;;;;;;22.70;13.23;;;;;;;-0.82;61.29;98860.56;5032220;28;20107;-58
2023/12/01 09:40:26;;;;;;;24.77;12.93;;;;;;;-0.74;60.96;98868.91;5034320;28;20031;-64
2023/12/01 09:42:53;;;;;;;20.58;11.32;;;;;;;-0.63;60.43;98867.53;5051136;28;20461;-62
2023/12/01 09:45:23;;;;;;;21.08;12.23;;;;;;;-0.59;60.40;98863.81;5048122;28;20444;-59
2023/12/01 09:47:58;;;;;;;20.42;12.13;;;;;;;-0.87;60.82;98807.38;5033249;28;20037;-63
2023/12/01 09:50:24;;;;;;;24.45;13.07;;;;;;;-0.68;60.57;98856.41;5033315;28;20477;-63
2023/12/01 09:52:53;;;;;;;24.17;12.25;;;;;;;-0.69;60.22;98847.66;5033050;28;20053;-63
2023/12/01 09:55:19;;;;;;;22.38;12.27;;;;;;;-0.60;60.17;98839.34;5033184;28;20120;-62
2023/12/01 09:57:45;;;;;;;22.92;12.30;;;;;;;-0.66;60.32;98830.91;5033001;28;20116;-64
2023/12/01 10:00:12;;;;;;;25.52;13.05;;;;;;;-0.55;60.48;98844.34;5045608;28;20102;-60
2023/12/01 10:02:41;;;;;;;25.17;13.25;;;;;;;-0.49;60.44;98838.75;5047882;28;20116;-61
2023/12/01 10:05:08;;;;;;;22.15;12.18;;;;;;;-0.44;60.36;98831.50;5052845;28;20344;-60
2023/12/01 10:07:34;;;;;;;22.98;12.85;;;;;;;-0.40;60.01;98821.66;5052755;28;20143;-61
2023/12/01 10:10:17;;;;;;;22.60;13.15;;;;;;;-0.42;60.05;98828.78;5052156;28;20108;-63
2023/12/01 10:12:59;;;;;;;22.10;12.05;;;;;;;-0.37;60.25;98815.41;5051029;28;20029;-67
2023/12/01 10:15:26;;;;;;;20.75;11.98;;;;;;;-0.42;59.52;98810.38;5042170;28;20112;-55
2023/12/01 10:17:53;;;;;;;29.52;12.85;;;;;;;-0.46;59.59;98808.84;5051499;28;20036;-57
2023/12/01 10:20:21;;;;;;;26.17;13.02;;;;;;;-0.48;59.86;98803.66;5046522;28;20093;-56
2023/12/01 10:22:51;;;;;;;24.27;13.50;;;;;;;-0.56;59.85;98794.47;5051080;28;20960;-59
2023/12/01 10:25:17;;;;;;;25.35;13.82;;;;;;;-0.51;60.05;98801.16;5050599;28;20941;-58
2023/12/01 10:27:53;;;;;;;23.33;12.93;;;;;;;-0.39;60.14;98799.69;5049947;28;20076;-58
2023/12/01 10:30:19;;;;;;;25.67;13.93;;;;;;;-0.65;59.46;98751.94;5040032;28;20440;-60
2023/12/01 10:32:47;;;;;;;26.27;14.10;;;;;;;-0.72;59.71;98740.03;5045946;28;20025;-57
2023/12/01 10:35:13;;;;;;;28.45;14.98;;;;;;;-0.45;60.02;98790.34;5039230;28;20041;-56
2023/12/01 10:37:42;;;;;;;28.08;16.73;;;;;;;-0.52;59.82;98783.69;5051700;28;20040;-56
2023/12/01 10:40:09;;;;;;;29.10;16.38;;;;;;;-0.48;60.16;98776.50;5041290;28;20052;-59
2023/12/01 10:42:35;;;;;;;28.52;15.43;;;;;;;-0.47;60.44;98779.06;5031901;28;20187;-59
2023/12/01 10:45:03;;;;;;;32.17;17.08;;;;;;;-0.56;60.42;98765.56;5041191;28;20048;-63
2023/12/01 10:47:32;;;;;;;38.90;17.05;;;;;;;-0.50;60.59;98771.31;5039259;28;20274;-59
2023/12/01 10:49:58;;;;;;;33.47;17.00;;;;;;;-0.52;60.53;98770.56;5043156;28;20056;-62
2023/12/01 10:52:25;;;;;;;32.50;16.92;;;;;;;-0.51;60.62;98767.00;5030200;28;20041;-62
2023/12/01 10:54:52;;;;;;;34.45;17.00;;;;;;;-0.48;60.14;98771.25;5033172;28;20671;-59
2023/12/01 10:57:39;;;;;;;29.52;16.27;;;;;;;-0.52;60.62;98752.16;5047962;28;20068;-57
2023/12/01 11:00:19;;;;;;;31.98;16.33;;;;;;;-0.58;60.12;98749.84;5050304;28;20056;-60
2023/12/01 11:02:48;;;;;;;29.63;15.77;;;;;;;-0.64;60.87;98760.69;5069708;28;20040;-58
2023/12/01 11:05:16;;;;;;;29.05;15.20;;;;;;;-0.74;60.44;98732.22;5069544;28;20032;-60
2023/12/01 11:07:56;;;;;;;29.77;15.88;;;;;;;-0.75;60.77;98764.69;5045283;28;20423;-60
2023/12/01 11:10:42;;;;;;;30.15;16.17;;;;;;;-0.77;61.19;98748.16;5043372;28;20051;-60
2023/12/01 11:13:14;;;;;;;26.38;15.35;;;;;;;-0.83;60.67;98743.22;5044060;28;20044;-58
2023/12/01 11:15:43;;;;;;;28.02;15.48;;;;;;;-0.91;60.94;98748.88;5047055;28;20033;-57
2023/12/01 11:18:10;;;;;;;28.45;14.85;;;;;;;-0.98;61.56;98742.22;5046643;28;20200;-57
2023/12/01 11:20:43;;;;;;;27.52;14.95;;;;;;;-0.90;60.91;98737.44;5045628;28;20099;-62